Time;durP1;ratioP1;P1;durP2;ratioP2;P2;SDS_P1;SDS_P2;PMS_P1;PMS_P2;Temp;Humidity;BMP_temperature;BMP_pressure;BME280_temperature;BME280_humidity;BME280_pressure;Samples;Min_cycle;Max_cycle;Signal;HPM_P1;HPM_P2
2019/09/04 00:00:33;;;;;;;6.299999;5.3;;;;;;;10.9;96.92383;95812.08;;;;
2019/09/04 00:01:38;;;;;;;6.299999;5.3;;;;;;;10.9;96.92383;95812.08;;;;
2019/09/04 00:02:39;;;;;;;5.65;5.05;;;;;;;10.91;97.10449;95808.44;;;;
2019/09/04 00:03:40;;;;;;;5.65;5.05;;;;;;;10.91;97.10449;95808.44;;;;
2019/09/04 00:04:42;;;;;;;5.65;5.05;;;;;;;10.91;97.10449;95808.44;;;;
2019/09/04 00:05:43;;;;;;;5.849999;5.15;;;;;;;10.9;97.3916;95807.61;;;;
2019/09/04 00:06:44;;;;;;;5.849999;5.15;;;;;;;10.9;97.3916;95807.61;;;;
2019/09/04 00:07:45;;;;;;;6.25;5.3;;;;;;;10.9;97.55957;95801.4;;;;
2019/09/04 00:08:47;;;;;;;6.25;5.3;;;;;;;10.9;97.55957;95801.4;;;;
2019/09/04 00:09:48;;;;;;;6.25;5.3;;;;;;;10.9;97.55957;95801.4;;;;
2019/09/04 00:10:49;;;;;;;5.699999;5.25;;;;;;;10.89;97.7832;95801.92;;;;
2019/09/04 00:11:50;;;;;;;5.699999;5.25;;;;;;;10.89;97.7832;95801.92;;;;
2019/09/04 00:12:52;;;;;;;6.5;5.85;;;;;;;10.89;97.92188;95801.92;;;;
2019/09/04 00:13:53;;;;;;;6.5;5.85;;;;;;;10.89;97.92188;95801.92;;;;
2019/09/04 00:14:54;;;;;;;6.5;5.85;;;;;;;10.89;97.92188;95801.92;;;;
2019/09/04 00:15:55;;;;;;;6.149999;5.55;;;;;;;10.89;98.2168;95798.38;;;;
2019/09/04 00:16:57;;;;;;;6.149999;5.55;;;;;;;10.89;98.2168;95798.38;;;;
2019/09/04 00:17:58;;;;;;;6.149999;5.55;;;;;;;10.89;98.2168;95798.38;;;;
2019/09/04 00:18:59;;;;;;;6.15;5.65;;;;;;;10.89;98.35742;95792.05;;;;
2019/09/04 00:20:00;;;;;;;6.15;5.65;;;;;;;10.89;98.35742;95792.05;;;;
2019/09/04 00:21:03;;;;;;;6.5;5.4;;;;;;;10.89;98.60156;95794.75;;;;
2019/09/04 00:22:04;;;;;;;6.5;5.4;;;;;;;10.89;98.60156;95794.75;;;;
2019/09/04 00:23:06;;;;;;;6.5;5.4;;;;;;;10.89;98.60156;95794.75;;;;
2019/09/04 00:24:07;;;;;;;5.5;5;;;;;;;10.87;98.71484;95788.22;;;;
2019/09/04 00:25:08;;;;;;;5.5;5;;;;;;;10.87;98.71484;95788.22;;;;
2019/09/04 00:26:11;;;;;;;6.05;5.450001;;;;;;;10.87;98.81836;95789.67;;;;
2019/09/04 00:27:13;;;;;;;6.05;5.450001;;;;;;;10.87;98.81836;95789.67;;;;
2019/09/04 00:28:14;;;;;;;6.05;5.450001;;;;;;;10.87;98.81836;95789.67;;;;
2019/09/04 00:29:15;;;;;;;6.6;5.75;;;;;;;10.85;98.89063;95787.62;;;;
2019/09/04 00:30:16;;;;;;;6.6;5.75;;;;;;;10.85;98.89063;95787.62;;;;
2019/09/04 00:31:17;;;;;;;6.15;5.65;;;;;;;10.84;99.09082;95785.99;;;;
2019/09/04 00:32:18;;;;;;;6.15;5.65;;;;;;;10.84;99.09082;95785.99;;;;
2019/09/04 00:33:20;;;;;;;6.15;5.65;;;;;;;10.84;99.09082;95785.99;;;;
2019/09/04 00:34:21;;;;;;;6.15;5.65;;;;;;;10.84;99.09082;95785.99;;;;
2019/09/04 00:35:22;;;;;;;6.15;5.65;;;;;;;10.84;99.09082;95785.99;;;;
2019/09/04 00:36:24;;;;;;;6.15;5.65;;;;;;;10.84;99.09082;95785.99;;;;
2019/09/04 00:37:25;;;;;;;6.85;5.6;;;;;;;10.87;99.11621;95784.27;;;;
2019/09/04 00:38:26;;;;;;;6.85;5.6;;;;;;;10.87;99.11621;95784.27;;;;
2019/09/04 00:39:27;;;;;;;6.85;5.6;;;;;;;10.87;99.11621;95784.27;;;;
2019/09/04 00:40:28;;;;;;;6.85;5.6;;;;;;;10.87;99.11621;95784.27;;;;
2019/09/04 00:41:30;;;;;;;6.85;5.6;;;;;;;10.87;99.11621;95784.27;;;;
2019/09/04 00:42:32;;;;;;;6.3;5.699999;;;;;;;10.9;98.97363;95788.31;;;;
2019/09/04 00:43:33;;;;;;;6.3;5.699999;;;;;;;10.9;98.97363;95788.31;;;;
2019/09/04 00:44:34;;;;;;;6.3;5.699999;;;;;;;10.9;98.97363;95788.31;;;;
2019/09/04 00:45:35;;;;;;;6.45;5.900001;;;;;;;10.9;98.93164;95775.73;;;;
2019/09/04 00:46:36;;;;;;;6.45;5.900001;;;;;;;10.9;98.93164;95775.73;;;;
2019/09/04 00:47:37;;;;;;;6.45;5.900001;;;;;;;10.9;98.93164;95775.73;;;;
2019/09/04 00:48:38;;;;;;;6.8;6.1;;;;;;;10.85;99.30371;95774.21;;;;
2019/09/04 00:49:40;;;;;;;6.8;6.1;;;;;;;10.85;99.30371;95774.21;;;;
2019/09/04 00:50:41;;;;;;;6.6;5.849999;;;;;;;10.82;99.61816;95775.51;;;;
2019/09/04 00:51:42;;;;;;;6.6;5.849999;;;;;;;10.82;99.61816;95775.51;;;;
2019/09/04 00:52:43;;;;;;;6.6;5.849999;;;;;;;10.82;99.61816;95775.51;;;;
2019/09/04 00:53:44;;;;;;;6.450001;5.849999;;;;;;;10.78;99.95801;95768.89;;;;
2019/09/04 00:54:46;;;;;;;6.450001;5.849999;;;;;;;10.78;99.95801;95768.89;;;;
2019/09/04 00:55:47;;;;;;;7.15;6.25;;;;;;;10.77;100;95762.38;;;;
2019/09/04 00:56:48;;;;;;;7.15;6.25;;;;;;;10.77;100;95762.38;;;;
2019/09/04 00:57:49;;;;;;;7.15;6.25;;;;;;;10.77;100;95762.38;;;;
2019/09/04 00:58:50;;;;;;;6.35;5.749999;;;;;;;10.75;100;95765.72;;;;
2019/09/04 00:59:51;;;;;;;6.35;5.749999;;;;;;;10.75;100;95765.72;;;;
2019/09/04 01:00:52;;;;;;;6.35;5.749999;;;;;;;10.75;100;95765.72;;;;
2019/09/04 01:01:54;;;;;;;6;5.4;;;;;;;10.75;100;95765.82;;;;
2019/09/04 01:02:55;;;;;;;6;5.4;;;;;;;10.75;100;95765.82;;;;
2019/09/04 01:03:56;;;;;;;7.3;5.749999;;;;;;;10.74;100;95759.59;;;;
2019/09/04 01:04:58;;;;;;;7.3;5.749999;;;;;;;10.74;100;95759.59;;;;
2019/09/04 01:05:59;;;;;;;7.3;5.749999;;;;;;;10.74;100;95759.59;;;;
2019/09/04 01:07:00;;;;;;;6.05;5.55;;;;;;;10.74;100;95758.65;;;;
2019/09/04 01:08:02;;;;;;;6.05;5.55;;;;;;;10.74;100;95758.65;;;;
2019/09/04 01:09:04;;;;;;;6.400001;5.85;;;;;;;10.75;100;95759.07;;;;
2019/09/04 01:10:06;;;;;;;6.400001;5.85;;;;;;;10.75;100;95759.07;;;;
2019/09/04 01:11:08;;;;;;;6.400001;5.85;;;;;;;10.75;100;95759.07;;;;
2019/09/04 01:12:09;;;;;;;6.400001;5.85;;;;;;;10.75;100;95759.07;;;;
2019/09/04 01:13:11;;;;;;;6.400001;5.85;;;;;;;10.75;100;95759.07;;;;
2019/09/04 01:14:12;;;;;;;6.400001;5.85;;;;;;;10.75;100;95759.07;;;;
2019/09/04 01:15:13;;;;;;;6.400001;5.85;;;;;;;10.75;100;95759.07;;;;
2019/09/04 01:16:17;;;;;;;6.400001;5.85;;;;;;;10.75;100;95759.07;;;;
2019/09/04 01:17:18;;;;;;;6.400001;5.85;;;;;;;10.75;100;95759.07;;;;
2019/09/04 01:18:19;;;;;;;6.400001;5.85;;;;;;;10.75;100;95759.07;;;;
2019/09/04 01:19:20;;;;;;;6.400001;5.85;;;;;;;10.75;100;95759.07;;;;
2019/09/04 01:20:21;;;;;;;7.45;5.95;;;;;;;10.38;99.79102;95746.06;;;;
2019/09/04 01:21:24;;;;;;;7.45;5.95;;;;;;;10.38;99.79102;95746.06;;;;
2019/09/04 01:22:25;;;;;;;6.750001;6.05;;;;;;;10.35;100;95741.96;;;;
2019/09/04 01:23:26;;;;;;;6.750001;6.05;;;;;;;10.35;100;95741.96;;;;
2019/09/04 01:24:27;;;;;;;6.750001;6.05;;;;;;;10.35;100;95741.96;;;;
2019/09/04 01:25:28;;;;;;;7.25;6.6;;;;;;;10.38;100;95734.33;;;;
2019/09/04 01:26:30;;;;;;;7.25;6.6;;;;;;;10.38;100;95734.33;;;;
2019/09/04 01:27:31;;;;;;;6.75;6.149999;;;;;;;10.41;100;95729.02;;;;
2019/09/04 01:28:32;;;;;;;6.75;6.149999;;;;;;;10.41;100;95729.02;;;;
2019/09/04 01:29:34;;;;;;;6.75;6.149999;;;;;;;10.41;100;95729.02;;;;
2019/09/04 01:30:35;;;;;;;7.5;6.7;;;;;;;10.44;100;95733.03;;;;
2019/09/04 01:31:36;;;;;;;7.5;6.7;;;;;;;10.44;100;95733.03;;;;
2019/09/04 01:32:38;;;;;;;6.7;6;;;;;;;10.45;100;95726.19;;;;
2019/09/04 01:33:39;;;;;;;6.7;6;;;;;;;10.45;100;95726.19;;;;
2019/09/04 01:34:40;;;;;;;6.7;6;;;;;;;10.45;100;95726.19;;;;
2019/09/04 01:35:41;;;;;;;6.85;6.2;;;;;;;10.45;100;95725.63;;;;
2019/09/04 01:36:42;;;;;;;6.85;6.2;;;;;;;10.45;100;95725.63;;;;
2019/09/04 01:37:44;;;;;;;6.85;6.2;;;;;;;10.45;100;95725.63;;;;
2019/09/04 01:38:45;;;;;;;6.65;6.050001;;;;;;;10.45;100;95722.55;;;;
2019/09/04 01:39:46;;;;;;;6.65;6.050001;;;;;;;10.45;100;95722.55;;;;
2019/09/04 01:40:47;;;;;;;7.099999;6.5;;;;;;;10.45;100;95720.65;;;;
2019/09/04 01:41:49;;;;;;;7.099999;6.5;;;;;;;10.45;100;95720.65;;;;
2019/09/04 01:42:50;;;;;;;7.099999;6.5;;;;;;;10.45;100;95720.65;;;;
2019/09/04 01:43:51;;;;;;;6.950001;6.349999;;;;;;;10.44;100;95719.95;;;;
2019/09/04 01:44:52;;;;;;;6.950001;6.349999;;;;;;;10.44;100;95719.95;;;;
2019/09/04 01:45:54;;;;;;;7.100001;6.4;;;;;;;10.44;100;95715.06;;;;
2019/09/04 01:46:55;;;;;;;7.100001;6.4;;;;;;;10.44;100;95715.06;;;;
2019/09/04 01:47:56;;;;;;;7.100001;6.4;;;;;;;10.44;100;95715.06;;;;
2019/09/04 01:48:58;;;;;;;6.649999;6.149999;;;;;;;10.42;100;95713.95;;;;
2019/09/04 01:49:59;;;;;;;6.649999;6.149999;;;;;;;10.42;100;95713.95;;;;
2019/09/04 01:51:00;;;;;;;6.649999;6.149999;;;;;;;10.42;100;95713.95;;;;
2019/09/04 01:52:02;;;;;;;6.649999;6.149999;;;;;;;10.42;100;95713.95;;;;
2019/09/04 01:53:03;;;;;;;6.649999;6.149999;;;;;;;10.42;100;95713.95;;;;
2019/09/04 01:54:05;;;;;;;6.649999;6.149999;;;;;;;10.42;100;95713.95;;;;
2019/09/04 01:55:06;;;;;;;6.649999;6.149999;;;;;;;10.42;100;95713.95;;;;
2019/09/04 01:56:08;;;;;;;6.649999;6.149999;;;;;;;10.42;100;95713.95;;;;
2019/09/04 01:57:09;;;;;;;6.649999;6.149999;;;;;;;10.42;100;95713.95;;;;
2019/09/04 01:58:11;;;;;;;6.649999;6.149999;;;;;;;10.42;100;95713.95;;;;
2019/09/04 01:59:12;;;;;;;6.699999;6.100001;;;;;;;10.05;100;95694.7;;;;
2019/09/04 02:00:13;;;;;;;6.699999;6.100001;;;;;;;10.05;100;95694.7;;;;
2019/09/04 02:01:16;;;;;;;6.699999;6.100001;;;;;;;10.05;100;95694.7;;;;
2019/09/04 02:02:17;;;;;;;6.4;5.9;;;;;;;10.03;100;95693.16;;;;
2019/09/04 02:03:19;;;;;;;6.4;5.9;;;;;;;10.03;100;95693.16;;;;
2019/09/04 02:04:20;;;;;;;6.4;5.9;;;;;;;10.03;100;95693.16;;;;
2019/09/04 02:05:21;;;;;;;6.4;5.9;;;;;;;10.03;100;95693.16;;;;
2019/09/04 02:06:23;;;;;;;6.4;5.9;;;;;;;10.03;100;95693.16;;;;
2019/09/04 02:07:24;;;;;;;6.4;5.9;;;;;;;10.03;100;95693.16;;;;
2019/09/04 02:08:26;;;;;;;6.4;5.9;;;;;;;10.03;100;95693.16;;;;
2019/09/04 02:09:27;;;;;;;6.4;5.9;;;;;;;10.03;100;95693.16;;;;
2019/09/04 02:10:28;;;;;;;6.4;5.9;;;;;;;10.03;100;95693.16;;;;
2019/09/04 02:11:30;;;;;;;6.4;5.9;;;;;;;10.03;100;95693.16;;;;
2019/09/04 02:12:31;;;;;;;6.95;6.35;;;;;;;9.8;100;95687.95;;;;
2019/09/04 02:13:32;;;;;;;6.95;6.35;;;;;;;9.8;100;95687.95;;;;
2019/09/04 02:14:33;;;;;;;6.95;6.35;;;;;;;9.8;100;95687.95;;;;
2019/09/04 02:15:35;;;;;;;8.2;6.7;;;;;;;9.81;100;95688.79;;;;
2019/09/04 02:16:39;;;;;;;8.2;6.7;;;;;;;9.81;100;95688.79;;;;
2019/09/04 02:17:41;;;;;;;7.1;6.4;;;;;;;9.86;100;95680.47;;;;
2019/09/04 02:18:42;;;;;;;7.1;6.4;;;;;;;9.86;100;95680.47;;;;
2019/09/04 02:19:43;;;;;;;7.1;6.4;;;;;;;9.86;100;95680.47;;;;
2019/09/04 02:20:44;;;;;;;7.100001;6.4;;;;;;;9.9;100;95675.74;;;;
2019/09/04 02:21:45;;;;;;;7.100001;6.4;;;;;;;9.9;100;95675.74;;;;
2019/09/04 02:22:47;;;;;;;7.100001;6.4;;;;;;;9.9;100;95675.74;;;;
2019/09/04 02:23:48;;;;;;;7.100001;6.4;;;;;;;9.9;100;95675.74;;;;
2019/09/04 02:24:49;;;;;;;7.100001;6.4;;;;;;;9.9;100;95675.74;;;;
2019/09/04 02:25:50;;;;;;;7.100001;6.4;;;;;;;9.9;100;95675.74;;;;
2019/09/04 02:26:52;;;;;;;7.100001;6.4;;;;;;;9.9;100;95675.74;;;;
2019/09/04 02:27:53;;;;;;;7.100001;6.4;;;;;;;9.9;100;95675.74;;;;
2019/09/04 02:28:54;;;;;;;7.100001;6.4;;;;;;;9.9;100;95675.74;;;;
2019/09/04 02:29:55;;;;;;;7.100001;6.4;;;;;;;9.9;100;95675.74;;;;
2019/09/04 02:30:56;;;;;;;8.549999;6.400001;;;;;;;9.67;100;95672.43;;;;
2019/09/04 02:31:58;;;;;;;8.549999;6.400001;;;;;;;9.67;100;95672.43;;;;
2019/09/04 02:32:59;;;;;;;8.549999;6.400001;;;;;;;9.67;100;95672.43;;;;
2019/09/04 02:34:00;;;;;;;7.249999;6.65;;;;;;;9.67;100;95669.31;;;;
2019/09/04 02:35:01;;;;;;;7.249999;6.65;;;;;;;9.67;100;95669.31;;;;
2019/09/04 02:36:03;;;;;;;7.249999;6.65;;;;;;;9.67;100;95669.31;;;;
2019/09/04 02:37:04;;;;;;;7.249999;6.65;;;;;;;9.67;100;95669.31;;;;
2019/09/04 02:38:05;;;;;;;7.249999;6.65;;;;;;;9.67;100;95669.31;;;;
2019/09/04 02:39:07;;;;;;;7.249999;6.65;;;;;;;9.67;100;95669.31;;;;
2019/09/04 02:40:08;;;;;;;7.249999;6.65;;;;;;;9.67;100;95669.31;;;;
2019/09/04 02:41:10;;;;;;;7.249999;6.65;;;;;;;9.67;100;95669.31;;;;
2019/09/04 02:42:11;;;;;;;7.249999;6.65;;;;;;;9.67;100;95669.31;;;;
2019/09/04 02:43:12;;;;;;;7.249999;6.65;;;;;;;9.67;100;95669.31;;;;
2019/09/04 02:44:13;;;;;;;7.349999;6.7;;;;;;;9.49;100;95652.58;;;;
2019/09/04 02:45:14;;;;;;;7.349999;6.7;;;;;;;9.49;100;95652.58;;;;
2019/09/04 02:46:18;;;;;;;7.349999;6.7;;;;;;;9.49;100;95652.58;;;;
2019/09/04 02:47:19;;;;;;;7.75;7.05;;;;;;;9.52;100;95656.71;;;;
2019/09/04 02:48:20;;;;;;;7.75;7.05;;;;;;;9.52;100;95656.71;;;;
2019/09/04 02:49:22;;;;;;;7.75;7.05;;;;;;;9.52;100;95656.71;;;;
2019/09/04 02:50:23;;;;;;;7.75;7.05;;;;;;;9.52;100;95656.71;;;;
2019/09/04 02:51:26;;;;;;;7.75;7.05;;;;;;;9.52;100;95656.71;;;;
2019/09/04 02:52:27;;;;;;;7.75;7.05;;;;;;;9.52;100;95656.71;;;;
2019/09/04 02:53:28;;;;;;;7.75;7.05;;;;;;;9.52;100;95656.71;;;;
2019/09/04 02:54:29;;;;;;;7.75;7.05;;;;;;;9.52;100;95656.71;;;;
2019/09/04 02:55:31;;;;;;;7.75;7.05;;;;;;;9.52;100;95656.71;;;;
2019/09/04 02:56:32;;;;;;;7.75;7.05;;;;;;;9.52;100;95656.71;;;;
2019/09/04 02:57:33;;;;;;;7.35;6.6;;;;;;;9.37;100;95646.64;;;;
2019/09/04 02:58:34;;;;;;;7.35;6.6;;;;;;;9.37;100;95646.64;;;;
2019/09/04 02:59:36;;;;;;;7.35;6.6;;;;;;;9.37;100;95646.64;;;;
2019/09/04 03:00:37;;;;;;;7.550001;6.900001;;;;;;;9.4;100;95637.3;;;;
2019/09/04 03:01:38;;;;;;;7.550001;6.900001;;;;;;;9.4;100;95637.3;;;;
2019/09/04 03:02:39;;;;;;;7.550001;6.900001;;;;;;;9.4;100;95637.3;;;;
2019/09/04 03:03:40;;;;;;;7.550001;6.900001;;;;;;;9.4;100;95637.3;;;;
2019/09/04 03:04:41;;;;;;;7.550001;6.900001;;;;;;;9.4;100;95637.3;;;;
2019/09/04 03:05:43;;;;;;;7.550001;6.900001;;;;;;;9.4;100;95637.3;;;;
2019/09/04 03:06:44;;;;;;;7.550001;6.900001;;;;;;;9.4;100;95637.3;;;;
2019/09/04 03:07:45;;;;;;;7.550001;6.900001;;;;;;;9.4;100;95637.3;;;;
2019/09/04 03:08:46;;;;;;;7.550001;6.900001;;;;;;;9.4;100;95637.3;;;;
2019/09/04 03:09:47;;;;;;;7.550001;6.900001;;;;;;;9.4;100;95637.3;;;;
2019/09/04 03:10:48;;;;;;;7.900001;7.149999;;;;;;;9.28;100;95622.77;;;;
2019/09/04 03:11:50;;;;;;;7.900001;7.149999;;;;;;;9.28;100;95622.77;;;;
2019/09/04 03:12:51;;;;;;;7.900001;7.149999;;;;;;;9.28;100;95622.77;;;;
2019/09/04 03:13:52;;;;;;;7.95;7.25;;;;;;;9.31;100;95621.01;;;;
2019/09/04 03:14:53;;;;;;;7.95;7.25;;;;;;;9.31;100;95621.01;;;;
2019/09/04 03:15:54;;;;;;;7.95;7.25;;;;;;;9.31;100;95621.01;;;;
2019/09/04 03:16:55;;;;;;;7.95;7.25;;;;;;;9.31;100;95621.01;;;;
2019/09/04 03:17:57;;;;;;;7.95;7.25;;;;;;;9.31;100;95621.01;;;;
2019/09/04 03:18:58;;;;;;;7.95;7.25;;;;;;;9.31;100;95621.01;;;;
2019/09/04 03:19:59;;;;;;;7.95;7.25;;;;;;;9.31;100;95621.01;;;;
2019/09/04 03:21:00;;;;;;;7.95;7.25;;;;;;;9.31;100;95621.01;;;;
2019/09/04 03:22:01;;;;;;;7.95;7.25;;;;;;;9.31;100;95621.01;;;;
2019/09/04 03:23:02;;;;;;;7.95;7.25;;;;;;;9.31;100;95621.01;;;;
2019/09/04 03:24:04;;;;;;;7.75;7.000001;;;;;;;9.23;100;95615.46;;;;
2019/09/04 03:25:05;;;;;;;7.75;7.000001;;;;;;;9.23;100;95615.46;;;;
2019/09/04 03:26:07;;;;;;;7.75;7.000001;;;;;;;9.23;100;95615.46;;;;
2019/09/04 03:27:08;;;;;;;7.849999;7.15;;;;;;;9.27;100;95611.3;;;;
2019/09/04 03:28:09;;;;;;;7.849999;7.15;;;;;;;9.27;100;95611.3;;;;
2019/09/04 03:29:11;;;;;;;7.849999;7.15;;;;;;;9.27;100;95611.3;;;;
2019/09/04 03:30:12;;;;;;;7.849999;7.15;;;;;;;9.27;100;95611.3;;;;
2019/09/04 03:31:14;;;;;;;7.849999;7.15;;;;;;;9.27;100;95611.3;;;;
2019/09/04 03:32:16;;;;;;;7.849999;7.15;;;;;;;9.27;100;95611.3;;;;
2019/09/04 03:33:17;;;;;;;7.849999;7.15;;;;;;;9.27;100;95611.3;;;;
2019/09/04 03:34:18;;;;;;;7.849999;7.15;;;;;;;9.27;100;95611.3;;;;
2019/09/04 03:35:19;;;;;;;7.849999;7.15;;;;;;;9.27;100;95611.3;;;;
2019/09/04 03:36:21;;;;;;;7.849999;7.15;;;;;;;9.27;100;95611.3;;;;
2019/09/04 03:37:22;;;;;;;7.65;6.849999;;;;;;;9.19;100;95607.12;;;;
2019/09/04 03:38:23;;;;;;;7.65;6.849999;;;;;;;9.19;100;95607.12;;;;
2019/09/04 03:39:24;;;;;;;7.65;6.849999;;;;;;;9.19;100;95607.12;;;;
2019/09/04 03:40:26;;;;;;;7.9;7.199999;;;;;;;9.22;100;95604.4;;;;
2019/09/04 03:41:28;;;;;;;7.9;7.199999;;;;;;;9.22;100;95604.4;;;;
2019/09/04 03:42:29;;;;;;;7.9;7.199999;;;;;;;9.22;100;95604.4;;;;
2019/09/04 03:43:31;;;;;;;7.9;7.199999;;;;;;;9.22;100;95604.4;;;;
2019/09/04 03:44:32;;;;;;;7.9;7.199999;;;;;;;9.22;100;95604.4;;;;
2019/09/04 03:45:33;;;;;;;7.9;7.199999;;;;;;;9.22;100;95604.4;;;;
2019/09/04 03:46:34;;;;;;;7.9;7.199999;;;;;;;9.22;100;95604.4;;;;
2019/09/04 03:47:35;;;;;;;7.9;7.199999;;;;;;;9.22;100;95604.4;;;;
2019/09/04 03:48:37;;;;;;;7.9;7.199999;;;;;;;9.22;100;95604.4;;;;
2019/09/04 03:49:38;;;;;;;7.9;7.199999;;;;;;;9.22;100;95604.4;;;;
2019/09/04 03:50:39;;;;;;;7.7;7.000001;;;;;;;9.1;100;95599.81;;;;
2019/09/04 03:51:41;;;;;;;7.7;7.000001;;;;;;;9.1;100;95599.81;;;;
2019/09/04 03:52:42;;;;;;;7.7;7.000001;;;;;;;9.1;100;95599.81;;;;
2019/09/04 03:53:44;;;;;;;8.700001;7.900001;;;;;;;9.11;100;95596.09;;;;
2019/09/04 03:54:45;;;;;;;8.700001;7.900001;;;;;;;9.11;100;95596.09;;;;
2019/09/04 03:55:46;;;;;;;8.700001;7.900001;;;;;;;9.11;100;95596.09;;;;
2019/09/04 03:56:47;;;;;;;8.700001;7.900001;;;;;;;9.11;100;95596.09;;;;
2019/09/04 03:57:48;;;;;;;8.700001;7.900001;;;;;;;9.11;100;95596.09;;;;
2019/09/04 03:58:49;;;;;;;8.700001;7.900001;;;;;;;9.11;100;95596.09;;;;
2019/09/04 03:59:50;;;;;;;8.700001;7.900001;;;;;;;9.11;100;95596.09;;;;
2019/09/04 04:00:52;;;;;;;8.700001;7.900001;;;;;;;9.11;100;95596.09;;;;
2019/09/04 04:01:53;;;;;;;8.700001;7.900001;;;;;;;9.11;100;95596.09;;;;
2019/09/04 04:02:54;;;;;;;8.700001;7.900001;;;;;;;9.11;100;95596.09;;;;
2019/09/04 04:03:55;;;;;;;7.85;7.200001;;;;;;;8.98;100;95593.91;;;;
2019/09/04 04:04:57;;;;;;;7.85;7.200001;;;;;;;8.98;100;95593.91;;;;
2019/09/04 04:05:58;;;;;;;7.85;7.200001;;;;;;;8.98;100;95593.91;;;;
2019/09/04 04:06:59;;;;;;;8.4;7.6;;;;;;;9.01;100;95584.16;;;;
2019/09/04 04:08:00;;;;;;;8.4;7.6;;;;;;;9.01;100;95584.16;;;;
2019/09/04 04:09:01;;;;;;;8.4;7.6;;;;;;;9.01;100;95584.16;;;;
2019/09/04 04:10:03;;;;;;;8.4;7.6;;;;;;;9.01;100;95584.16;;;;
2019/09/04 04:11:05;;;;;;;8.4;7.6;;;;;;;9.01;100;95584.16;;;;
2019/09/04 04:12:06;;;;;;;8.4;7.6;;;;;;;9.01;100;95584.16;;;;
2019/09/04 04:13:07;;;;;;;8.4;7.6;;;;;;;9.01;100;95584.16;;;;
2019/09/04 04:14:08;;;;;;;8.4;7.6;;;;;;;9.01;100;95584.16;;;;
2019/09/04 04:15:10;;;;;;;8.4;7.6;;;;;;;9.01;100;95584.16;;;;
2019/09/04 04:16:13;;;;;;;8.4;7.6;;;;;;;9.01;100;95584.16;;;;
2019/09/04 04:17:14;;;;;;;8.449999;7.400001;;;;;;;8.89;100;95588.06;;;;
2019/09/04 04:18:15;;;;;;;8.449999;7.400001;;;;;;;8.89;100;95588.06;;;;
2019/09/04 04:19:16;;;;;;;8.449999;7.400001;;;;;;;8.89;100;95588.06;;;;
2019/09/04 04:20:18;;;;;;;8.549999;7.85;;;;;;;8.91;100;95587.75;;;;
2019/09/04 04:21:20;;;;;;;8.549999;7.85;;;;;;;8.91;100;95587.75;;;;
2019/09/04 04:22:21;;;;;;;8.549999;7.85;;;;;;;8.91;100;95587.75;;;;
2019/09/04 04:23:22;;;;;;;8.549999;7.85;;;;;;;8.91;100;95587.75;;;;
2019/09/04 04:24:23;;;;;;;8.549999;7.85;;;;;;;8.91;100;95587.75;;;;
2019/09/04 04:25:25;;;;;;;8.549999;7.85;;;;;;;8.91;100;95587.75;;;;
2019/09/04 04:26:26;;;;;;;8.549999;7.85;;;;;;;8.91;100;95587.75;;;;
2019/09/04 04:27:27;;;;;;;8.549999;7.85;;;;;;;8.91;100;95587.75;;;;
2019/09/04 04:28:29;;;;;;;8.549999;7.85;;;;;;;8.91;100;95587.75;;;;
2019/09/04 04:29:30;;;;;;;8.549999;7.85;;;;;;;8.91;100;95587.75;;;;
2019/09/04 04:30:31;;;;;;;9.200001;7.5;;;;;;;8.8;100;95592.99;;;;
2019/09/04 04:31:34;;;;;;;9.200001;7.5;;;;;;;8.8;100;95592.99;;;;
2019/09/04 04:32:35;;;;;;;9.299999;8.400001;;;;;;;8.82;100;95585.94;;;;
2019/09/04 04:33:36;;;;;;;9.299999;8.400001;;;;;;;8.82;100;95585.94;;;;
2019/09/04 04:34:37;;;;;;;9.299999;8.400001;;;;;;;8.82;100;95585.94;;;;
2019/09/04 04:35:39;;;;;;;9.299999;8.400001;;;;;;;8.82;100;95585.94;;;;
2019/09/04 04:36:40;;;;;;;9.299999;8.400001;;;;;;;8.82;100;95585.94;;;;
2019/09/04 04:37:41;;;;;;;9.299999;8.400001;;;;;;;8.82;100;95585.94;;;;
2019/09/04 04:38:42;;;;;;;9.299999;8.400001;;;;;;;8.82;100;95585.94;;;;
2019/09/04 04:39:43;;;;;;;9.299999;8.400001;;;;;;;8.82;100;95585.94;;;;
2019/09/04 04:40:45;;;;;;;9.299999;8.400001;;;;;;;8.82;100;95585.94;;;;
2019/09/04 04:41:46;;;;;;;9.299999;8.400001;;;;;;;8.82;100;95585.94;;;;
2019/09/04 04:42:47;;;;;;;9.299999;8.400001;;;;;;;8.82;100;95585.94;;;;
2019/09/04 04:43:48;;;;;;;8.35;7.550001;;;;;;;8.75;100;95598.21;;;;
2019/09/04 04:44:49;;;;;;;8.35;7.550001;;;;;;;8.75;100;95598.21;;;;
2019/09/04 04:45:51;;;;;;;8.050001;7.35;;;;;;;8.79;100;95597.67;;;;
2019/09/04 04:46:52;;;;;;;8.050001;7.35;;;;;;;8.79;100;95597.67;;;;
2019/09/04 04:47:53;;;;;;;8.050001;7.35;;;;;;;8.79;100;95597.67;;;;
2019/09/04 04:48:54;;;;;;;8.050001;7.35;;;;;;;8.79;100;95597.67;;;;
2019/09/04 04:49:55;;;;;;;8.050001;7.35;;;;;;;8.79;100;95597.67;;;;
2019/09/04 04:50:56;;;;;;;8.050001;7.35;;;;;;;8.79;100;95597.67;;;;
2019/09/04 04:51:57;;;;;;;8.050001;7.35;;;;;;;8.79;100;95597.67;;;;
2019/09/04 04:52:58;;;;;;;8.050001;7.35;;;;;;;8.79;100;95597.67;;;;
2019/09/04 04:54:00;;;;;;;8.050001;7.35;;;;;;;8.79;100;95597.67;;;;
2019/09/04 04:55:01;;;;;;;8.050001;7.35;;;;;;;8.79;100;95597.67;;;;
2019/09/04 04:56:03;;;;;;;8.050001;7.35;;;;;;;8.79;100;95597.67;;;;
2019/09/04 04:57:04;;;;;;;9.899998;8.65;;;;;;;8.76;100;95586.41;;;;
2019/09/04 04:58:05;;;;;;;9.899998;8.65;;;;;;;8.76;100;95586.41;;;;
2019/09/04 04:59:06;;;;;;;9.899998;8.65;;;;;;;8.76;100;95586.41;;;;
2019/09/04 05:00:07;;;;;;;9.899998;8.65;;;;;;;8.76;100;95586.41;;;;
2019/09/04 05:01:11;;;;;;;9.899998;8.65;;;;;;;8.76;100;95586.41;;;;
2019/09/04 05:02:12;;;;;;;9.899998;8.65;;;;;;;8.76;100;95586.41;;;;
2019/09/04 05:03:13;;;;;;;9.899998;8.65;;;;;;;8.76;100;95586.41;;;;
2019/09/04 05:04:15;;;;;;;9.899998;8.65;;;;;;;8.76;100;95586.41;;;;
2019/09/04 05:05:16;;;;;;;9.899998;8.65;;;;;;;8.76;100;95586.41;;;;
2019/09/04 05:06:19;;;;;;;9.899998;8.65;;;;;;;8.76;100;95586.41;;;;
2019/09/04 05:07:20;;;;;;;11.35;9;;;;;;;8.8;100;95591.13;;;;
2019/09/04 05:08:21;;;;;;;11.35;9;;;;;;;8.8;100;95591.13;;;;
2019/09/04 05:09:22;;;;;;;11.35;9;;;;;;;8.8;100;95591.13;;;;
2019/09/04 05:10:23;;;;;;;11.35;9;;;;;;;8.8;100;95591.13;;;;
2019/09/04 05:11:27;;;;;;;11.35;9;;;;;;;8.8;100;95591.13;;;;
2019/09/04 05:12:28;;;;;;;11.35;9;;;;;;;8.8;100;95591.13;;;;
2019/09/04 05:13:29;;;;;;;11.35;9;;;;;;;8.8;100;95591.13;;;;
2019/09/04 05:14:30;;;;;;;11.35;9;;;;;;;8.8;100;95591.13;;;;
2019/09/04 05:15:32;;;;;;;11.35;9;;;;;;;8.8;100;95591.13;;;;
2019/09/04 05:16:35;;;;;;;11.35;9;;;;;;;8.8;100;95591.13;;;;
2019/09/04 05:17:36;;;;;;;11.45;9.099999;;;;;;;8.84;100;95582.51;;;;
2019/09/04 05:18:37;;;;;;;11.45;9.099999;;;;;;;8.84;100;95582.51;;;;
2019/09/04 05:19:38;;;;;;;11.45;9.099999;;;;;;;8.84;100;95582.51;;;;
2019/09/04 05:20:39;;;;;;;11.1;9.450001;;;;;;;8.93;100;95577.68;;;;
2019/09/04 05:21:41;;;;;;;11.1;9.450001;;;;;;;8.93;100;95577.68;;;;
2019/09/04 05:22:42;;;;;;;11.1;9.450001;;;;;;;8.93;100;95577.68;;;;
2019/09/04 05:23:43;;;;;;;11.1;9.450001;;;;;;;8.93;100;95577.68;;;;
2019/09/04 05:24:44;;;;;;;11.1;9.450001;;;;;;;8.93;100;95577.68;;;;
2019/09/04 05:25:45;;;;;;;11.1;9.450001;;;;;;;8.93;100;95577.68;;;;
2019/09/04 05:26:47;;;;;;;11.1;9.450001;;;;;;;8.93;100;95577.68;;;;
2019/09/04 05:27:48;;;;;;;11.1;9.450001;;;;;;;8.93;100;95577.68;;;;
2019/09/04 05:28:49;;;;;;;11.1;9.450001;;;;;;;8.93;100;95577.68;;;;
2019/09/04 05:29:50;;;;;;;11.1;9.450001;;;;;;;8.93;100;95577.68;;;;
2019/09/04 05:30:51;;;;;;;10.45;9;;;;;;;9.11;100;95581.37;;;;
2019/09/04 05:31:52;;;;;;;10.45;9;;;;;;;9.11;100;95581.37;;;;
2019/09/04 05:32:53;;;;;;;10.45;9;;;;;;;9.11;100;95581.37;;;;
2019/09/04 05:33:55;;;;;;;9.950001;8.949999;;;;;;;9.22;100;95574.77;;;;
2019/09/04 05:34:56;;;;;;;9.950001;8.949999;;;;;;;9.22;100;95574.77;;;;
2019/09/04 05:35:57;;;;;;;9.950001;8.949999;;;;;;;9.22;100;95574.77;;;;
2019/09/04 05:36:58;;;;;;;9.950001;8.949999;;;;;;;9.22;100;95574.77;;;;
2019/09/04 05:37:59;;;;;;;9.950001;8.949999;;;;;;;9.22;100;95574.77;;;;
2019/09/04 05:39:01;;;;;;;9.950001;8.949999;;;;;;;9.22;100;95574.77;;;;
2019/09/04 05:40:02;;;;;;;9.950001;8.949999;;;;;;;9.22;100;95574.77;;;;
2019/09/04 05:41:03;;;;;;;9.950001;8.949999;;;;;;;9.22;100;95574.77;;;;
2019/09/04 05:42:05;;;;;;;9.950001;8.949999;;;;;;;9.22;100;95574.77;;;;
2019/09/04 05:43:06;;;;;;;9.950001;8.949999;;;;;;;9.22;100;95574.77;;;;
2019/09/04 05:44:07;;;;;;;9.299999;7.95;;;;;;;9.51;100;95566;;;;
2019/09/04 05:45:08;;;;;;;9.299999;7.95;;;;;;;9.51;100;95566;;;;
2019/09/04 05:46:10;;;;;;;9.299999;7.95;;;;;;;9.51;100;95566;;;;
2019/09/04 05:47:11;;;;;;;8.899999;7.850001;;;;;;;9.66;100;95567.92;;;;
2019/09/04 05:48:12;;;;;;;8.899999;7.850001;;;;;;;9.66;100;95567.92;;;;
2019/09/04 05:49:14;;;;;;;8.899999;7.850001;;;;;;;9.66;100;95567.92;;;;
2019/09/04 05:50:15;;;;;;;8.899999;7.850001;;;;;;;9.66;100;95567.92;;;;
2019/09/04 05:51:19;;;;;;;8.899999;7.850001;;;;;;;9.66;100;95567.92;;;;
2019/09/04 05:52:20;;;;;;;8.899999;7.850001;;;;;;;9.66;100;95567.92;;;;
2019/09/04 05:53:21;;;;;;;8.899999;7.850001;;;;;;;9.66;100;95567.92;;;;
2019/09/04 05:54:22;;;;;;;8.899999;7.850001;;;;;;;9.66;100;95567.92;;;;
2019/09/04 05:55:23;;;;;;;8.899999;7.850001;;;;;;;9.66;100;95567.92;;;;
2019/09/04 05:56:25;;;;;;;8.899999;7.850001;;;;;;;9.66;100;95567.92;;;;
2019/09/04 05:57:27;;;;;;;9.550001;8.550001;;;;;;;10.08;100;95559.86;;;;